sensor_id;sensor_type;location;lat;lon;timestamp;pressure;altitude;pressure_sealevel;temperature;humidity
4705;BME280;2366;51.332;6.610;2023-03-01T00:01:46;102887.50;;;3.47;53.81
4705;BME280;2366;51.332;6.610;2023-03-01T00:04:12;102893.63;;;3.46;53.85
4705;BME280;2366;51.332;6.610;2023-03-01T00:06:37;102886.66;;;3.54;53.58
4705;BME280;2366;51.332;6.610;2023-03-01T00:09:03;102887.53;;;3.52;53.68
4705;BME280;2366;51.332;6.610;2023-03-01T00:11:30;102880.50;;;3.49;53.74
4705;BME280;2366;51.332;6.610;2023-03-01T00:13:57;102884.03;;;3.53;53.77
4705;BME280;2366;51.332;6.610;2023-03-01T00:16:26;102884.88;;;3.48;53.45
4705;BME280;2366;51.332;6.610;2023-03-01T00:18:53;102890.16;;;3.50;54.13
4705;BME280;2366;51.332;6.610;2023-03-01T00:21:20;102886.63;;;3.51;53.92
4705;BME280;2366;51.332;6.610;2023-03-01T00:23:46;102896.25;;;3.47;54.17
4705;BME280;2366;51.332;6.610;2023-03-01T00:26:14;102883.97;;;3.40;53.76
4705;BME280;2366;51.332;6.610;2023-03-01T00:28:40;102886.56;;;3.29;54.23
4705;BME280;2366;51.332;6.610;2023-03-01T00:31:09;102883.94;;;3.29;54.12
4705;BME280;2366;51.332;6.610;2023-03-01T00:33:34;102883.09;;;3.31;54.38
4705;BME280;2366;51.332;6.610;2023-03-01T00:36:00;102885.69;;;3.29;54.41
4705;BME280;2366;51.332;6.610;2023-03-01T00:38:26;102882.22;;;3.33;54.22
4705;BME280;2366;51.332;6.610;2023-03-01T00:40:51;102879.59;;;3.28;54.12
4705;BME280;2366;51.332;6.610;2023-03-01T00:43:18;102874.34;;;3.25;54.05
4705;BME280;2366;51.332;6.610;2023-03-01T00:45:43;102866.47;;;3.25;54.21
4705;BME280;2366;51.332;6.610;2023-03-01T00:48:08;102867.38;;;3.27;54.60
4705;BME280;2366;51.332;6.610;2023-03-01T00:50:34;102862.97;;;3.26;53.99
4705;BME280;2366;51.332;6.610;2023-03-01T00:52:59;102860.34;;;3.26;54.12
4705;BME280;2366;51.332;6.610;2023-03-01T00:55:25;102853.31;;;3.21;54.39
4705;BME280;2366;51.332;6.610;2023-03-01T00:57:50;102855.09;;;3.17;54.34
4705;BME280;2366;51.332;6.610;2023-03-01T01:00:16;102862.06;;;3.15;54.81
4705;BME280;2366;51.332;6.610;2023-03-01T01:02:42;102855.94;;;3.13;54.63
4705;BME280;2366;51.332;6.610;2023-03-01T01:05:07;102848.94;;;3.12;54.99
4705;BME280;2366;51.332;6.610;2023-03-01T01:07:33;102849.78;;;3.05;54.85
4705;BME280;2366;51.332;6.610;2023-03-01T01:09:58;102848.03;;;3.07;55.06
4705;BME280;2366;51.332;6.610;2023-03-01T01:12:24;102845.41;;;3.02;54.93
4705;BME280;2366;51.332;6.610;2023-03-01T01:14:49;102839.28;;;2.96;55.73
4705;BME280;2366;51.332;6.610;2023-03-01T01:17:14;102835.72;;;2.91;55.64
4705;BME280;2366;51.332;6.610;2023-03-01T01:19:40;102838.38;;;2.92;55.10
4705;BME280;2366;51.332;6.610;2023-03-01T01:22:05;102834.88;;;2.87;55.67
4705;BME280;2366;51.332;6.610;2023-03-01T01:24:30;102826.97;;;2.81;56.10
4705;BME280;2366;51.332;6.610;2023-03-01T01:26:56;102824.34;;;2.78;56.15
4705;BME280;2366;51.332;6.610;2023-03-01T01:29:22;102814.75;;;2.78;56.54
4705;BME280;2366;51.332;6.610;2023-03-01T01:31:48;102823.47;;;2.76;56.65
4705;BME280;2366;51.332;6.610;2023-03-01T01:34:18;102823.44;;;2.74;56.26
4705;BME280;2366;51.332;6.610;2023-03-01T01:36:52;102813.81;;;2.67;56.57
4705;BME280;2366;51.332;6.610;2023-03-01T01:39:21;102823.41;;;2.66;56.59
4705;BME280;2366;51.332;6.610;2023-03-01T01:41:47;102817.28;;;2.61;56.69
4705;BME280;2366;51.332;6.610;2023-03-01T01:44:27;102804.16;;;2.60;57.11
4705;BME280;2366;51.332;6.610;2023-03-01T01:46:56;102806.75;;;2.55;57.04
4705;BME280;2366;51.332;6.610;2023-03-01T01:49:27;102804.13;;;2.47;56.48
4705;BME280;2366;51.332;6.610;2023-03-01T01:51:59;102790.13;;;2.45;57.33
4705;BME280;2366;51.332;6.610;2023-03-01T01:54:43;102802.34;;;2.46;57.28
4705;BME280;2366;51.332;6.610;2023-03-01T01:57:15;102788.41;;;2.51;57.07
4705;BME280;2366;51.332;6.610;2023-03-01T01:59:45;102782.28;;;2.50;57.02
4705;BME280;2366;51.332;6.610;2023-03-01T02:02:12;102777.03;;;2.47;57.54
4705;BME280;2366;51.332;6.610;2023-03-01T02:04:38;102782.25;;;2.41;57.74
4705;BME280;2366;51.332;6.610;2023-03-01T02:07:14;102785.72;;;2.38;57.94
4705;BME280;2366;51.332;6.610;2023-03-01T02:09:46;102795.34;;;2.41;57.66
4705;BME280;2366;51.332;6.610;2023-03-01T02:12:13;102793.59;;;2.41;57.94
4705;BME280;2366;51.332;6.610;2023-03-01T02:14:39;102788.38;;;2.44;57.87
4705;BME280;2366;51.332;6.610;2023-03-01T02:17:04;102787.53;;;2.45;58.01
4705;BME280;2366;51.332;6.610;2023-03-01T02:20:04;102793.59;;;2.41;58.12
4705;BME280;2366;51.332;6.610;2023-03-01T02:22:35;102789.22;;;2.40;58.11
4705;BME280;2366;51.332;6.610;2023-03-01T02:30:29;102792.75;;;2.45;58.02
4705;BME280;2366;51.332;6.610;2023-03-01T02:32:57;102776.16;;;2.46;57.79
4705;BME280;2366;51.332;6.610;2023-03-01T02:35:32;102777.03;;;2.47;57.99
4705;BME280;2366;51.332;6.610;2023-03-01T02:37:58;102781.41;;;2.46;57.49
4705;BME280;2366;51.332;6.610;2023-03-01T02:40:28;102780.53;;;2.51;58.05
4705;BME280;2366;51.332;6.610;2023-03-01T02:42:56;102777.94;;;2.54;57.27
4705;BME280;2366;51.332;6.610;2023-03-01T02:45:22;102779.69;;;2.50;57.73
4705;BME280;2366;51.332;6.610;2023-03-01T02:47:48;102777.94;;;2.47;57.73
4705;BME280;2366;51.332;6.610;2023-03-01T02:50:36;102777.88;;;2.44;57.40
4705;BME280;2366;51.332;6.610;2023-03-01T02:53:22;102770.00;;;2.40;57.35
4705;BME280;2366;51.332;6.610;2023-03-01T02:55:50;102780.44;;;2.29;57.20
4705;BME280;2366;51.332;6.610;2023-03-01T02:58:15;102781.22;;;2.19;57.70
4705;BME280;2366;51.332;6.610;2023-03-01T03:00:42;102780.31;;;2.09;58.16
4705;BME280;2366;51.332;6.610;2023-03-01T03:03:16;102789.06;;;2.13;58.17
4705;BME280;2366;51.332;6.610;2023-03-01T03:05:42;102789.06;;;2.13;58.59
4705;BME280;2366;51.332;6.610;2023-03-01T03:08:08;102790.78;;;2.09;58.34
4705;BME280;2366;51.332;6.610;2023-03-01T03:10:39;102786.38;;;2.05;58.58
4705;BME280;2366;51.332;6.610;2023-03-01T03:13:08;102786.41;;;2.07;58.99
4705;BME280;2366;51.332;6.610;2023-03-01T03:15:34;102787.28;;;2.04;58.91
4705;BME280;2366;51.332;6.610;2023-03-01T03:18:06;102782.03;;;2.07;59.22
4705;BME280;2366;51.332;6.610;2023-03-01T03:20:32;102780.25;;;2.03;58.81
4705;BME280;2366;51.332;6.610;2023-03-01T03:22:58;102781.09;;;1.97;58.68
4705;BME280;2366;51.332;6.610;2023-03-01T03:25:25;102781.06;;;1.93;58.79
4705;BME280;2366;51.332;6.610;2023-03-01T03:27:52;102781.03;;;1.88;59.66
4705;BME280;2366;51.332;6.610;2023-03-01T03:30:26;102774.09;;;1.93;59.70
4705;BME280;2366;51.332;6.610;2023-03-01T03:32:52;102774.09;;;1.93;58.92
4705;BME280;2366;51.332;6.610;2023-03-01T03:35:29;102773.22;;;1.93;59.23
4705;BME280;2366;51.332;6.610;2023-03-01T03:38:05;102769.69;;;1.88;59.05
4705;BME280;2366;51.332;6.610;2023-03-01T03:40:42;102760.09;;;1.88;59.41
4705;BME280;2366;51.332;6.610;2023-03-01T03:43:13;102760.16;;;1.97;59.04
4705;BME280;2366;51.332;6.610;2023-03-01T03:45:38;102760.13;;;1.93;58.76
4705;BME280;2366;51.332;6.610;2023-03-01T03:48:06;102758.34;;;1.89;59.07
4705;BME280;2366;51.332;6.610;2023-03-01T03:50:32;102755.69;;;1.84;59.31
4705;BME280;2366;51.332;6.610;2023-03-01T03:53:00;102760.09;;;1.85;59.02
4705;BME280;2366;51.332;6.610;2023-03-01T03:55:26;102753.06;;;1.78;59.24
4705;BME280;2366;51.332;6.610;2023-03-01T03:57:57;102750.34;;;1.69;58.95
4705;BME280;2366;51.332;6.610;2023-03-01T04:00:23;102753.91;;;1.74;59.68
4705;BME280;2366;51.332;6.610;2023-03-01T04:02:50;102757.44;;;1.80;59.41
4705;BME280;2366;51.332;6.610;2023-03-01T04:05:17;102754.81;;;1.79;59.41
4705;BME280;2366;51.332;6.610;2023-03-01T04:07:43;102752.19;;;1.79;59.10
4705;BME280;2366;51.332;6.610;2023-03-01T04:10:15;102746.94;;;1.79;59.15
4705;BME280;2366;51.332;6.610;2023-03-01T04:12:41;102741.69;;;1.77;59.52
4705;BME280;2366;51.332;6.610;2023-03-01T04:15:09;102739.97;;;1.76;59.26
4705;BME280;2366;51.332;6.610;2023-03-01T04:17:47;102732.97;;;1.75;59.38
4705;BME280;2366;51.332;6.610;2023-03-01T04:20:15;102737.31;;;1.75;59.10
4705;BME280;2366;51.332;6.610;2023-03-01T04:22:50;102737.38;;;1.78;59.14
4705;BME280;2366;51.332;6.610;2023-03-01T04:25:16;102729.44;;;1.70;59.42
4705;BME280;2366;51.332;6.610;2023-03-01T04:27:41;102730.31;;;1.68;59.29
4705;BME280;2366;51.332;6.610;2023-03-01T04:30:08;102727.66;;;1.66;59.37
4705;BME280;2366;51.332;6.610;2023-03-01T04:32:33;102729.38;;;1.59;59.66
4705;BME280;2366;51.332;6.610;2023-03-01T04:34:59;102727.66;;;1.63;59.63
4705;BME280;2366;51.332;6.610;2023-03-01T04:37:25;102722.41;;;1.61;59.76
4705;BME280;2366;51.332;6.610;2023-03-01T04:39:51;102721.53;;;1.59;59.62
4705;BME280;2366;51.332;6.610;2023-03-01T04:42:16;102731.13;;;1.62;59.80
4705;BME280;2366;51.332;6.610;2023-03-01T04:44:45;102731.09;;;1.59;59.89
4705;BME280;2366;51.332;6.610;2023-03-01T04:47:11;102731.97;;;1.56;59.86
4705;BME280;2366;51.332;6.610;2023-03-01T04:49:37;102734.56;;;1.58;59.62
4705;BME280;2366;51.332;6.610;2023-03-01T04:52:03;102736.41;;;1.65;59.81
4705;BME280;2366;51.332;6.610;2023-03-01T04:54:29;102738.13;;;1.66;59.11
4705;BME280;2366;51.332;6.610;2023-03-01T04:56:55;102735.53;;;1.68;59.63
4705;BME280;2366;51.332;6.610;2023-03-01T04:59:21;102732.09;;;1.72;59.24
4705;BME280;2366;51.332;6.610;2023-03-01T05:01:53;102734.75;;;1.78;59.11
4705;BME280;2366;51.332;6.610;2023-03-01T05:04:23;102725.13;;;1.77;58.61
4705;BME280;2366;51.332;6.610;2023-03-01T05:06:49;102722.50;;;1.72;58.80
4705;BME280;2366;51.332;6.610;2023-03-01T05:09:15;102721.63;;;1.72;58.89
4705;BME280;2366;51.332;6.610;2023-03-01T05:11:40;102721.63;;;1.72;58.72
4705;BME280;2366;51.332;6.610;2023-03-01T05:14:07;102718.13;;;1.70;58.71
4705;BME280;2366;51.332;6.610;2023-03-01T05:16:33;102718.97;;;1.70;58.83
4705;BME280;2366;51.332;6.610;2023-03-01T05:18:59;102719.00;;;1.73;58.83
4705;BME280;2366;51.332;6.610;2023-03-01T05:21:24;102725.13;;;1.75;58.45
4705;BME280;2366;51.332;6.610;2023-03-01T05:23:50;102711.16;;;1.75;58.41
4705;BME280;2366;51.332;6.610;2023-03-01T05:26:17;102703.28;;;1.69;58.69
4705;BME280;2366;51.332;6.610;2023-03-01T05:28:43;102710.19;;;1.62;58.59
4705;BME280;2366;51.332;6.610;2023-03-01T05:31:08;102706.72;;;1.61;58.86
4705;BME280;2366;51.332;6.610;2023-03-01T05:33:38;102707.56;;;1.60;58.97
4705;BME280;2366;51.332;6.610;2023-03-01T05:36:06;102704.09;;;1.58;59.06
4705;BME280;2366;51.332;6.610;2023-03-01T05:38:32;102690.06;;;1.49;59.05
4705;BME280;2366;51.332;6.610;2023-03-01T05:40:58;102695.28;;;1.49;59.53
4705;BME280;2366;51.332;6.610;2023-03-01T05:43:23;102703.97;;;1.46;59.46
4705;BME280;2366;51.332;6.610;2023-03-01T05:45:48;102693.53;;;1.48;59.30
4705;BME280;2366;51.332;6.610;2023-03-01T05:48:14;102686.53;;;1.45;59.71
4705;BME280;2366;51.332;6.610;2023-03-01T05:50:42;102694.38;;;1.43;59.59
4705;BME280;2366;51.332;6.610;2023-03-01T05:53:19;102700.50;;;1.46;59.92
4705;BME280;2366;51.332;6.610;2023-03-01T05:55:46;102692.66;;;1.46;59.74
4705;BME280;2366;51.332;6.610;2023-03-01T05:58:17;102690.88;;;1.44;59.77
4705;BME280;2366;51.332;6.610;2023-03-01T06:00:44;102698.72;;;1.44;59.71
4705;BME280;2366;51.332;6.610;2023-03-01T06:03:12;102702.22;;;1.45;60.08
4705;BME280;2366;51.332;6.610;2023-03-01T06:05:39;102703.97;;;1.46;60.07
4705;BME280;2366;51.332;6.610;2023-03-01T06:08:05;102702.19;;;1.40;60.00
4705;BME280;2366;51.332;6.610;2023-03-01T06:10:30;102707.38;;;1.36;59.86
4705;BME280;2366;51.332;6.610;2023-03-01T06:12:56;102706.50;;;1.35;60.25
4705;BME280;2366;51.332;6.610;2023-03-01T06:15:22;102708.28;;;1.41;60.52
4705;BME280;2366;51.332;6.610;2023-03-01T06:17:47;102703.94;;;1.43;60.41
4705;BME280;2366;51.332;6.610;2023-03-01T06:20:16;102694.38;;;1.43;60.58
4705;BME280;2366;51.332;6.610;2023-03-01T06:22:42;102702.22;;;1.45;60.52
4705;BME280;2366;51.332;6.610;2023-03-01T06:25:14;102696.13;;;1.44;60.83
4705;BME280;2366;51.332;6.610;2023-03-01T06:27:40;102697.00;;;1.47;60.46
4705;BME280;2366;51.332;6.610;2023-03-01T06:30:06;102685.69;;;1.49;60.77
4705;BME280;2366;51.332;6.610;2023-03-01T06:32:33;102684.84;;;1.53;60.85
4705;BME280;2366;51.332;6.610;2023-03-01T06:34:58;102690.97;;;1.55;60.58
4705;BME280;2366;51.332;6.610;2023-03-01T06:37:25;102689.25;;;1.57;60.75
4705;BME280;2366;51.332;6.610;2023-03-01T06:39:50;102697.09;;;1.60;60.92
4705;BME280;2366;51.332;6.610;2023-03-01T06:42:16;102693.69;;;1.71;60.36
4705;BME280;2366;51.332;6.610;2023-03-01T06:44:41;102679.78;;;1.75;59.95
4705;BME280;2366;51.332;6.610;2023-03-01T06:47:07;102692.00;;;1.79;60.21
4705;BME280;2366;51.332;6.610;2023-03-01T06:49:32;102692.91;;;1.82;59.96
4705;BME280;2366;51.332;6.610;2023-03-01T06:51:58;102692.91;;;1.81;59.92
4705;BME280;2366;51.332;6.610;2023-03-01T06:54:23;102692.00;;;1.79;59.71
4705;BME280;2366;51.332;6.610;2023-03-01T06:56:49;102690.28;;;1.84;59.65
4705;BME280;2366;51.332;6.610;2023-03-01T06:59:16;102687.78;;;1.98;59.91
4705;BME280;2366;51.332;6.610;2023-03-01T07:01:42;102694.16;;;2.57;59.39
4705;BME280;2366;51.332;6.610;2023-03-01T07:04:08;102699.53;;;3.21;57.04
4705;BME280;2366;51.332;6.610;2023-03-01T07:06:34;102708.13;;;4.26;55.52
4705;BME280;2366;51.332;6.610;2023-03-01T07:08:59;102684.19;;;4.86;53.20
4705;BME280;2366;51.332;6.610;2023-03-01T07:11:24;102694.13;;;5.57;50.50
4705;BME280;2366;51.332;6.610;2023-03-01T07:13:50;102700.19;;;6.50;47.58
4705;BME280;2366;51.332;6.610;2023-03-01T07:16:15;102707.69;;;7.90;45.99
4705;BME280;2366;51.332;6.610;2023-03-01T07:18:41;102705.03;;;8.77;43.05
4705;BME280;2366;51.332;6.610;2023-03-01T07:21:08;102703.97;;;9.59;41.19
4705;BME280;2366;51.332;6.610;2023-03-01T07:23:33;102694.56;;;9.80;39.18
4705;BME280;2366;51.332;6.610;2023-03-01T07:25:59;102690.88;;;9.87;39.14
4705;BME280;2366;51.332;6.610;2023-03-01T07:28:31;102693.78;;;9.43;39.08
4705;BME280;2366;51.332;6.610;2023-03-01T07:31:04;102691.94;;;8.72;40.66
4705;BME280;2366;51.332;6.610;2023-03-01T07:33:29;102694.69;;;9.05;41.08
4705;BME280;2366;51.332;6.610;2023-03-01T07:36:03;102691.84;;;9.83;39.38
4705;BME280;2366;51.332;6.610;2023-03-01T07:38:29;102688.31;;;11.31;37.58
4705;BME280;2366;51.332;6.610;2023-03-01T07:40:59;102686.00;;;11.99;35.17
4705;BME280;2366;51.332;6.610;2023-03-01T07:43:25;102678.44;;;12.11;33.92
4705;BME280;2366;51.332;6.610;2023-03-01T07:45:51;102660.59;;;12.15;34.44
4705;BME280;2366;51.332;6.610;2023-03-01T07:48:17;102680.94;;;12.40;33.34
4705;BME280;2366;51.332;6.610;2023-03-01T07:50:42;102667.34;;;12.47;32.77
4705;BME280;2366;51.332;6.610;2023-03-01T07:53:09;102681.16;;;12.33;33.21
4705;BME280;2366;51.332;6.610;2023-03-01T07:55:35;102671.75;;;12.70;32.50
4705;BME280;2366;51.332;6.610;2023-03-01T07:58:00;102675.03;;;12.55;32.84
4705;BME280;2366;51.332;6.610;2023-03-01T08:00:26;102672.47;;;12.98;32.30
4705;BME280;2366;51.332;6.610;2023-03-01T08:02:51;102675.78;;;13.03;32.35
4705;BME280;2366;51.332;6.610;2023-03-01T08:05:16;102674.19;;;13.43;31.55
4705;BME280;2366;51.332;6.610;2023-03-01T08:07:42;102676.53;;;13.71;31.36
4705;BME280;2366;51.332;6.610;2023-03-01T08:10:08;102687.22;;;14.69;29.25
4705;BME280;2366;51.332;6.610;2023-03-01T08:12:33;102677.56;;;14.46;29.48
4705;BME280;2366;51.332;6.610;2023-03-01T08:14:59;102685.41;;;14.69;29.16
4705;BME280;2366;51.332;6.610;2023-03-01T08:17:24;102687.78;;;15.12;28.62
4705;BME280;2366;51.332;6.610;2023-03-01T08:19:50;102681.63;;;15.64;28.45
4705;BME280;2366;51.332;6.610;2023-03-01T08:22:15;102683.59;;;16.11;27.22
4705;BME280;2366;51.332;6.610;2023-03-01T08:24:40;102674.97;;;16.06;26.77
4705;BME280;2366;51.332;6.610;2023-03-01T08:27:06;102676.59;;;16.08;27.20
4705;BME280;2366;51.332;6.610;2023-03-01T08:29:32;102670.91;;;16.79;26.60
4705;BME280;2366;51.332;6.610;2023-03-01T08:31:57;102666.16;;;17.00;26.26
4705;BME280;2366;51.332;6.610;2023-03-01T08:34:23;102668.88;;;17.31;25.52
4705;BME280;2366;51.332;6.610;2023-03-01T08:36:48;102664.16;;;16.72;25.17
4705;BME280;2366;51.332;6.610;2023-03-01T08:39:16;102661.41;;;16.58;25.07
4705;BME280;2366;51.332;6.610;2023-03-01T08:41:41;102662.28;;;16.90;25.09
4705;BME280;2366;51.332;6.610;2023-03-01T08:44:07;102654.59;;;16.84;25.15
4705;BME280;2366;51.332;6.610;2023-03-01T08:46:37;102651.44;;;16.28;25.62
4705;BME280;2366;51.332;6.610;2023-03-01T08:49:28;102671.84;;;15.63;26.13
4705;BME280;2366;51.332;6.610;2023-03-01T08:51:54;102651.81;;;15.71;26.39
4705;BME280;2366;51.332;6.610;2023-03-01T08:54:21;102656.78;;;15.61;26.37
4705;BME280;2366;51.332;6.610;2023-03-01T08:56:47;102660.78;;;15.53;26.15
4705;BME280;2366;51.332;6.610;2023-03-01T08:59:15;102646.69;;;14.97;27.03
4705;BME280;2366;51.332;6.610;2023-03-01T09:01:41;102654.78;;;15.30;26.88
4705;BME280;2366;51.332;6.610;2023-03-01T09:04:14;102647.81;;;15.80;25.97
4705;BME280;2366;51.332;6.610;2023-03-01T09:06:40;102650.84;;;17.02;25.47
4705;BME280;2366;51.332;6.610;2023-03-01T09:09:06;102661.72;;;16.52;24.83
4705;BME280;2366;51.332;6.610;2023-03-01T09:11:32;102658.00;;;16.22;25.35
4705;BME280;2366;51.332;6.610;2023-03-01T09:13:58;102652.91;;;16.34;25.36
4705;BME280;2366;51.332;6.610;2023-03-01T09:16:23;102665.84;;;16.10;25.53
4705;BME280;2366;51.332;6.610;2023-03-01T09:18:51;102644.94;;;16.00;25.57
4705;BME280;2366;51.332;6.610;2023-03-01T09:21:18;102633.81;;;15.40;26.20
4705;BME280;2366;51.332;6.610;2023-03-01T09:23:46;102640.88;;;15.58;26.37
4705;BME280;2366;51.332;6.610;2023-03-01T09:26:18;102642.47;;;15.45;26.18
4705;BME280;2366;51.332;6.610;2023-03-01T09:28:45;102636.66;;;16.05;26.27
4705;BME280;2366;51.332;6.610;2023-03-01T09:31:11;102629.81;;;15.99;25.51
4705;BME280;2366;51.332;6.610;2023-03-01T09:33:41;102635.00;;;16.02;25.40
4705;BME280;2366;51.332;6.610;2023-03-01T09:36:10;102622.03;;;15.95;25.62
4705;BME280;2366;51.332;6.610;2023-03-01T09:38:36;102644.81;;;15.34;25.95
4705;BME280;2366;51.332;6.610;2023-03-01T09:41:01;102631.78;;;15.28;26.75
4705;BME280;2366;51.332;6.610;2023-03-01T09:43:49;102615.72;;;15.10;26.14
4705;BME280;2366;51.332;6.610;2023-03-01T09:46:20;102607.44;;;13.66;28.47
4705;BME280;2366;51.332;6.610;2023-03-01T09:48:51;102607.00;;;11.02;31.42
4705;BME280;2366;51.332;6.610;2023-03-01T09:51:37;102608.00;;;9.49;34.14
4705;BME280;2366;51.332;6.610;2023-03-01T09:54:04;102612.06;;;8.94;35.04
4705;BME280;2366;51.332;6.610;2023-03-01T09:57:04;102623.63;;;8.90;35.66
4705;BME280;2366;51.332;6.610;2023-03-01T10:04:50;102610.00;;;9.07;35.56
4705;BME280;2366;51.332;6.610;2023-03-01T10:09:46;102609.28;;;8.22;37.16
4705;BME280;2366;51.332;6.610;2023-03-01T10:12:18;102601.75;;;8.02;38.18
4705;BME280;2366;51.332;6.610;2023-03-01T10:14:59;102598.94;;;8.11;37.77
4705;BME280;2366;51.332;6.610;2023-03-01T10:17:34;102595.41;;;8.11;38.52
4705;BME280;2366;51.332;6.610;2023-03-01T10:22:44;102585.25;;;7.92;38.26
4705;BME280;2366;51.332;6.610;2023-03-01T10:25:17;102582.41;;;8.00;37.90
4705;BME280;2366;51.332;6.610;2023-03-01T10:27:54;102575.53;;;7.93;37.74
4705;BME280;2366;51.332;6.610;2023-03-01T10:30:36;102561.38;;;7.95;38.29
4705;BME280;2366;51.332;6.610;2023-03-01T10:33:20;102570.78;;;8.09;37.71
4705;BME280;2366;51.332;6.610;2023-03-01T10:35:46;102568.00;;;8.16;38.08
4705;BME280;2366;51.332;6.610;2023-03-01T10:38:14;102571.47;;;8.18;38.19
4705;BME280;2366;51.332;6.610;2023-03-01T10:43:17;102566.50;;;8.45;37.72
4705;BME280;2366;51.332;6.610;2023-03-01T10:45:45;102560.94;;;8.56;37.26
4705;BME280;2366;51.332;6.610;2023-03-01T10:48:16;102557.00;;;8.35;37.37
4705;BME280;2366;51.332;6.610;2023-03-01T10:50:48;102561.16;;;8.47;37.65
4705;BME280;2366;51.332;6.610;2023-03-01T10:53:28;102551.44;;;8.49;36.58
4705;BME280;2366;51.332;6.610;2023-03-01T10:56:04;102555.91;;;8.45;36.90
4705;BME280;2366;51.332;6.610;2023-03-01T10:58:31;102554.44;;;8.30;37.31
4705;BME280;2366;51.332;6.610;2023-03-01T11:01:02;102546.31;;;8.41;37.51
4705;BME280;2366;51.332;6.610;2023-03-01T11:03:32;102541.59;;;8.55;37.27
4705;BME280;2366;51.332;6.610;2023-03-01T11:06:04;102543.56;;;8.46;37.27
4705;BME280;2366;51.332;6.610;2023-03-01T11:08:37;102543.50;;;8.49;37.51
4705;BME280;2366;51.332;6.610;2023-03-01T11:11:34;102541.56;;;8.57;37.31
4705;BME280;2366;51.332;6.610;2023-03-01T11:14:05;102527.56;;;8.52;36.49
4705;BME280;2366;51.332;6.610;2023-03-01T11:16:39;102527.44;;;8.56;36.52
4705;BME280;2366;51.332;6.610;2023-03-01T11:21:42;102516.81;;;8.59;36.86
4705;BME280;2366;51.332;6.610;2023-03-01T11:24:12;102518.91;;;8.81;36.13
4705;BME280;2366;51.332;6.610;2023-03-01T11:26:42;102517.81;;;8.90;36.37
4705;BME280;2366;51.332;6.610;2023-03-01T11:29:25;102522.66;;;8.72;36.20
4705;BME280;2366;51.332;6.610;2023-03-01T11:31:54;102511.81;;;8.83;36.12
4705;BME280;2366;51.332;6.610;2023-03-01T11:34:32;102507.25;;;8.88;35.96
4705;BME280;2366;51.332;6.610;2023-03-01T11:37:05;102500.97;;;8.92;35.62
4705;BME280;2366;51.332;6.610;2023-03-01T11:39:39;102503.41;;;9.00;35.42
4705;BME280;2366;51.332;6.610;2023-03-01T11:42:13;102499.97;;;8.98;35.08
4705;BME280;2366;51.332;6.610;2023-03-01T11:44:42;102489.47;;;8.93;35.67
4705;BME280;2366;51.332;6.610;2023-03-01T11:52:30;102497.66;;;9.17;34.32
4705;BME280;2366;51.332;6.610;2023-03-01T12:08:47;102506.66;;;9.42;34.12
4705;BME280;2366;51.332;6.610;2023-03-01T12:22:31;102472.91;;;9.51;33.46
4705;BME280;2366;51.332;6.610;2023-03-01T12:35:47;102452.50;;;9.54;33.44
4705;BME280;2366;51.332;6.610;2023-03-01T12:41:11;102441.59;;;9.65;33.48
4705;BME280;2366;51.332;6.610;2023-03-01T12:46:46;102451.25;;;9.66;33.70
4705;BME280;2366;51.332;6.610;2023-03-01T12:51:57;102439.13;;;9.59;33.96
4705;BME280;2366;51.332;6.610;2023-03-01T12:54:30;102441.34;;;9.73;32.86
4705;BME280;2366;51.332;6.610;2023-03-01T12:57:02;102432.00;;;9.61;32.60
4705;BME280;2366;51.332;6.610;2023-03-01T12:59:43;102427.66;;;9.58;33.05
4705;BME280;2366;51.332;6.610;2023-03-01T13:02:31;102423.69;;;9.43;33.92
4705;BME280;2366;51.332;6.610;2023-03-01T13:05:02;102407.97;;;9.67;32.95
4705;BME280;2366;51.332;6.610;2023-03-01T13:07:42;102419.19;;;9.75;32.70
4705;BME280;2366;51.332;6.610;2023-03-01T13:10:28;102417.19;;;9.83;32.22
4705;BME280;2366;51.332;6.610;2023-03-01T13:15:37;102423.63;;;10.03;32.96
4705;BME280;2366;51.332;6.610;2023-03-01T13:26:00;102402.69;;;10.22;33.16
4705;BME280;2366;51.332;6.610;2023-03-01T13:31:06;102401.84;;;10.21;33.79
4705;BME280;2366;51.332;6.610;2023-03-01T13:36:00;102376.88;;;10.27;33.65
4705;BME280;2366;51.332;6.610;2023-03-01T13:38:48;102381.69;;;10.16;33.58
4705;BME280;2366;51.332;6.610;2023-03-01T13:46:53;102372.72;;;10.20;32.72
4705;BME280;2366;51.332;6.610;2023-03-01T13:49:27;102361.84;;;10.27;33.39
4705;BME280;2366;51.332;6.610;2023-03-01T13:51:54;102371.75;;;10.22;32.96
4705;BME280;2366;51.332;6.610;2023-03-01T13:54:31;102358.06;;;10.08;33.44
4705;BME280;2366;51.332;6.610;2023-03-01T13:56:59;102366.66;;;10.16;33.14
4705;BME280;2366;51.332;6.610;2023-03-01T13:59:25;102359.25;;;10.26;32.86
4705;BME280;2366;51.332;6.610;2023-03-01T14:02:00;102342.25;;;10.33;32.64
4705;BME280;2366;51.332;6.610;2023-03-01T14:04:29;102351.03;;;10.35;32.45
4705;BME280;2366;51.332;6.610;2023-03-01T14:07:28;102344.09;;;10.31;32.12
4705;BME280;2366;51.332;6.610;2023-03-01T14:10:02;102351.47;;;10.21;32.31
4705;BME280;2366;51.332;6.610;2023-03-01T14:15:33;102343.41;;;10.24;32.46
4705;BME280;2366;51.332;6.610;2023-03-01T14:18:10;102344.66;;;10.13;32.38
4705;BME280;2366;51.332;6.610;2023-03-01T14:20:43;102335.69;;;10.17;32.90
4705;BME280;2366;51.332;6.610;2023-03-01T14:23:14;102329.22;;;10.25;33.03
4705;BME280;2366;51.332;6.610;2023-03-01T14:25:51;102316.19;;;10.19;33.00
4705;BME280;2366;51.332;6.610;2023-03-01T14:28:20;102320.44;;;10.23;33.09
4705;BME280;2366;51.332;6.610;2023-03-01T14:30:48;102317.47;;;10.34;33.03
4705;BME280;2366;51.332;6.610;2023-03-01T14:33:21;102331.06;;;10.23;33.27
4705;BME280;2366;51.332;6.610;2023-03-01T14:38:41;102315.16;;;10.23;33.28
4705;BME280;2366;51.332;6.610;2023-03-01T14:41:10;102316.50;;;9.57;34.52
4705;BME280;2366;51.332;6.610;2023-03-01T14:43:42;102317.13;;;9.65;34.81
4705;BME280;2366;51.332;6.610;2023-03-01T14:46:29;102301.13;;;9.68;35.04
4705;BME280;2366;51.332;6.610;2023-03-01T14:49:04;102306.53;;;9.65;34.44
4705;BME280;2366;51.332;6.610;2023-03-01T14:51:30;102302.28;;;9.59;34.26
4705;BME280;2366;51.332;6.610;2023-03-01T14:53:56;102301.94;;;9.70;34.21
4705;BME280;2366;51.332;6.610;2023-03-01T14:56:21;102290.38;;;9.73;34.15
4705;BME280;2366;51.332;6.610;2023-03-01T14:58:51;102296.63;;;9.70;34.04
4705;BME280;2366;51.332;6.610;2023-03-01T15:01:17;102299.13;;;9.75;34.31
4705;BME280;2366;51.332;6.610;2023-03-01T15:03:48;102296.53;;;9.73;34.52
4705;BME280;2366;51.332;6.610;2023-03-01T15:06:17;102292.16;;;9.72;34.93
4705;BME280;2366;51.332;6.610;2023-03-01T15:08:46;102287.53;;;9.79;35.00